createdAt,value
2022-08-17T00:00:49.398Z,70.65
2022-08-17T00:04:13.786Z,71.04
2022-08-17T00:07:38.296Z,71.35
2022-08-17T00:11:02.762Z,71.57
2022-08-17T00:14:24.697Z,71.29
2022-08-17T00:17:48.169Z,71.35
2022-08-17T00:21:12.249Z,71.08
2022-08-17T00:24:35.569Z,70.87
2022-08-17T00:27:59.022Z,70.97
2022-08-17T00:31:22.693Z,70.82
2022-08-17T00:34:44.382Z,70.46
2022-08-17T00:38:09.748Z,70.60
2022-08-17T00:41:31.769Z,70.90
2022-08-17T00:44:54.979Z,70.90
2022-08-17T00:48:29.159Z,71.00
2022-08-17T00:51:56.186Z,71.03
2022-08-17T00:55:18.866Z,71.33
2022-08-17T00:58:42.077Z,71.85
2022-08-17T01:02:07.245Z,71.83
2022-08-17T01:05:33.070Z,71.86
2022-08-17T01:08:57.273Z,71.71
2022-08-17T01:12:19.771Z,71.66
2022-08-17T01:15:47.481Z,71.70
2022-08-17T01:19:17.915Z,71.82
2022-08-17T01:22:41.296Z,72.07
2022-08-17T01:26:06.079Z,72.04
2022-08-17T01:29:30.797Z,72.01
2022-08-17T01:32:52.925Z,72.11
2022-08-17T01:36:14.676Z,72.17
2022-08-17T01:39:42.152Z,71.88
2022-08-17T01:43:09.526Z,72.02
2022-08-17T01:46:35.578Z,72.29
2022-08-17T01:49:57.211Z,72.67
2022-08-17T01:53:23.207Z,72.84
2022-08-17T01:56:49.414Z,73.56
2022-08-17T02:00:13.224Z,74.06
2022-08-17T02:03:37.087Z,74.01
2022-08-17T02:06:59.331Z,74.24
2022-08-17T02:10:22.362Z,74.46
2022-08-17T02:13:46.642Z,75.05
2022-08-17T02:17:08.474Z,75.20
2022-08-17T02:20:41.376Z,75.06
2022-08-17T02:24:05.719Z,75.09
2022-08-17T02:27:27.931Z,75.42
2022-08-17T02:31:01.669Z,75.24
2022-08-17T02:34:24.415Z,75.30
2022-08-17T02:37:46.379Z,74.85
2022-08-17T02:41:13.749Z,75.00
2022-08-17T02:44:39.862Z,75.17
2022-08-17T02:48:03.420Z,75.15
2022-08-17T02:51:25.534Z,75.01
2022-08-17T02:54:47.911Z,75.02
2022-08-17T02:58:12.196Z,75.00
2022-08-17T03:01:34.157Z,75.04
2022-08-17T03:04:57.332Z,75.02
2022-08-17T03:08:19.914Z,75.12
2022-08-17T03:11:41.671Z,75.15
2022-08-17T03:15:05.044Z,74.91
2022-08-17T03:18:28.002Z,74.89
2022-08-17T03:21:55.376Z,74.79
2022-08-17T03:25:19.668Z,74.97
2022-08-17T03:28:44.555Z,75.24
2022-08-17T03:32:12.645Z,75.36
2022-08-17T03:35:36.417Z,75.56
2022-08-17T03:38:59.226Z,75.87
2022-08-17T03:42:32.262Z,76.15
2022-08-17T03:46:33.992Z,76.43
2022-08-17T03:50:10.758Z,77.00
2022-08-17T03:54:01.042Z,77.01
2022-08-17T03:57:24.387Z,77.38
2022-08-17T04:00:46.518Z,76.95
2022-08-17T04:04:08.788Z,77.50
2022-08-17T04:07:31.897Z,76.95
2022-08-17T04:10:53.849Z,76.59
2022-08-17T04:14:17.141Z,76.71
2022-08-17T04:17:39.523Z,76.79
2022-08-17T04:21:01.782Z,76.17
2022-08-17T04:24:23.458Z,75.72
2022-08-17T04:27:45.374Z,75.57
2022-08-17T04:31:09.305Z,75.59
2022-08-17T04:34:31.460Z,75.62
2022-08-17T04:37:54.044Z,75.49
2022-08-17T04:41:34.635Z,74.91
2022-08-17T04:44:56.222Z,75.22
2022-08-17T04:48:19.762Z,74.88
2022-08-17T04:51:45.514Z,75.00
2022-08-17T04:55:17.503Z,75.45
2022-08-17T04:58:39.413Z,75.18
2022-08-17T05:02:00.974Z,75.20
2022-08-17T05:05:27.353Z,75.24
2022-08-17T05:08:48.986Z,75.31
2022-08-17T05:12:10.630Z,76.00
2022-08-17T05:15:36.048Z,76.40
2022-08-17T05:18:59.278Z,75.98
2022-08-17T05:22:22.642Z,75.97
2022-08-17T05:25:47.760Z,76.24
2022-08-17T05:29:09.376Z,75.34
2022-08-17T05:32:38.906Z,74.95
2022-08-17T05:36:02.543Z,74.43
2022-08-17T05:39:25.620Z,73.91
2022-08-17T05:42:48.259Z,73.26
2022-08-17T05:46:18.055Z,73.08
2022-08-17T05:49:40.133Z,72.77
2022-08-17T05:53:07.483Z,72.64
2022-08-17T05:56:50.413Z,72.67
2022-08-17T06:00:19.252Z,72.14
2022-08-17T06:03:50.518Z,72.36
2022-08-17T06:07:21.927Z,72.08
2022-08-17T06:10:48.837Z,71.69
2022-08-17T06:14:26.562Z,70.61
2022-08-17T06:17:48.274Z,70.15
2022-08-17T06:21:14.685Z,70.05
2022-08-17T06:24:40.161Z,69.86
2022-08-17T06:28:05.720Z,69.71
2022-08-17T06:31:34.251Z,69.61
2022-08-17T06:34:57.455Z,69.90
2022-08-17T06:38:37.655Z,69.69
2022-08-17T06:43:02.536Z,69.75
2022-08-17T06:45:59.894Z,69.99
2022-08-17T06:49:29.546Z,70.22
2022-08-17T06:52:56.210Z,70.33
2022-08-17T06:56:53.071Z,70.29
2022-08-17T07:00:16.655Z,69.83
2022-08-17T07:03:45.346Z,69.61
2022-08-17T07:07:25.696Z,69.36
2022-08-17T07:10:50.290Z,69.32
2022-08-17T07:14:29.176Z,69.13
2022-08-17T07:17:52.251Z,68.79
2022-08-17T07:21:26.497Z,68.39
2022-08-17T07:24:53.499Z,68.22
2022-08-17T07:28:22.919Z,68.06
2022-08-17T07:31:45.329Z,67.63
2022-08-17T07:35:17.258Z,67.13
2022-08-17T07:38:56.986Z,65.86
2022-08-17T07:42:20.588Z,65.92
2022-08-17T07:46:10.727Z,65.41
2022-08-17T07:49:37.118Z,64.67
2022-08-17T07:52:59.227Z,64.26
2022-08-17T07:56:41.027Z,63.77
2022-08-17T08:00:23.901Z,64.18
2022-08-17T08:03:53.711Z,63.82
2022-08-17T08:07:26.747Z,63.40
2022-08-17T08:11:00.079Z,61.94
2022-08-17T08:14:29.500Z,60.79
2022-08-17T08:17:55.427Z,58.16
2022-08-17T08:21:21.988Z,57.72
2022-08-17T08:24:57.292Z,58.25
2022-08-17T08:28:27.277Z,56.19
2022-08-17T08:31:58.010Z,56.04
2022-08-17T08:35:30.954Z,54.85
2022-08-17T08:39:01.156Z,52.02
2022-08-17T08:42:28.867Z,51.89
2022-08-17T08:45:57.243Z,48.85
2022-08-17T08:50:06.688Z,48.96
2022-08-17T08:53:40.571Z,47.47
2022-08-17T08:57:26.748Z,47.53
2022-08-17T09:00:55.838Z,46.36
2022-08-17T09:05:10.548Z,47.17
2022-08-17T09:08:34.914Z,45.87
2022-08-17T09:12:09.490Z,46.94
2022-08-17T09:15:37.722Z,45.50
2022-08-17T09:19:05.342Z,45.13
2022-08-17T09:22:34.122Z,46.63
2022-08-17T09:26:01.979Z,46.09
2022-08-17T09:29:26.363Z,46.75
2022-08-17T09:32:55.372Z,45.07
2022-08-17T09:36:21.730Z,44.93
2022-08-17T09:39:52.587Z,44.96
2022-08-17T09:43:28.867Z,44.68
2022-08-17T09:46:55.369Z,43.36
2022-08-17T09:51:03.709Z,43.01
2022-08-17T09:54:37.709Z,42.73
2022-08-17T09:58:12.016Z,42.18
2022-08-17T10:01:40.613Z,41.14
2022-08-17T10:05:07.647Z,39.80
2022-08-17T10:08:37.390Z,39.06
2022-08-17T10:12:17.774Z,39.43
2022-08-17T10:15:49.467Z,38.85
2022-08-17T10:19:17.165Z,38.74
2022-08-17T10:23:02.167Z,37.25
2022-08-17T10:26:28.143Z,38.00
2022-08-17T10:30:13.838Z,39.91
2022-08-17T10:33:49.841Z,38.61
2022-08-17T10:37:32.061Z,39.20
2022-08-17T10:40:58.986Z,38.84
2022-08-17T10:44:37.943Z,38.96
2022-08-17T10:48:22.841Z,39.51
2022-08-17T10:51:47.940Z,39.74
2022-08-17T10:55:18.922Z,39.57
2022-08-17T10:58:49.591Z,39.44
2022-08-17T11:02:18.915Z,40.07
2022-08-17T11:05:58.856Z,38.36
2022-08-17T11:09:36.377Z,39.12
2022-08-17T11:13:05.713Z,39.11
2022-08-17T11:16:49.755Z,38.07
2022-08-17T11:20:29.085Z,38.84
2022-08-17T11:24:14.906Z,39.35
2022-08-17T11:27:37.750Z,38.29
2022-08-17T11:31:09.452Z,38.59
2022-08-17T11:34:32.926Z,38.27
2022-08-17T11:38:09.710Z,38.41
2022-08-17T11:41:49.946Z,37.81
2022-08-17T11:45:33.062Z,38.46
2022-08-17T11:49:27.284Z,38.17
2022-08-17T11:52:50.998Z,37.81
2022-08-17T11:56:32.114Z,36.97
2022-08-17T12:00:07.518Z,36.65
2022-08-17T12:03:55.246Z,37.02
2022-08-17T12:07:21.794Z,37.08
2022-08-17T12:10:55.356Z,37.00
2022-08-17T12:14:35.498Z,37.87
2022-08-17T12:18:04.431Z,35.93
2022-08-17T12:21:45.132Z,36.04
2022-08-17T12:25:14.907Z,36.34
2022-08-17T12:28:39.758Z,35.46
2022-08-17T12:32:03.495Z,35.63
2022-08-17T12:35:29.908Z,35.46
2022-08-17T12:39:00.118Z,35.15
2022-08-17T12:42:39.433Z,35.02
2022-08-17T12:46:15.395Z,35.29
2022-08-17T12:49:39.413Z,34.53
2022-08-17T12:53:02.692Z,34.91
2022-08-17T12:56:24.213Z,34.39
2022-08-17T12:59:53.504Z,34.09
2022-08-17T13:03:19.199Z,35.04
2022-08-17T13:06:51.561Z,34.47
2022-08-17T13:10:32.135Z,33.78
2022-08-17T13:13:56.941Z,34.23
2022-08-17T13:17:27.528Z,33.79
2022-08-17T13:20:54.292Z,33.25
2022-08-17T13:24:19.925Z,33.55
2022-08-17T13:27:44.116Z,33.71
2022-08-17T13:31:39.443Z,34.14
2022-08-17T13:35:39.464Z,33.04
2022-08-17T13:39:13.498Z,32.54
2022-08-17T13:42:53.164Z,33.74
2022-08-17T13:46:21.630Z,34.55
2022-08-17T13:49:48.803Z,34.42
2022-08-17T13:53:22.698Z,34.30
2022-08-17T13:56:55.031Z,33.17
2022-08-17T14:00:21.281Z,33.52
2022-08-17T14:03:44.358Z,32.41
2022-08-17T14:07:28.957Z,32.95
2022-08-17T14:10:59.350Z,33.15
2022-08-17T14:14:23.241Z,32.70
2022-08-17T14:17:45.193Z,32.76
2022-08-17T14:21:08.468Z,33.08
2022-08-17T14:24:32.790Z,32.30
2022-08-17T14:27:57.035Z,32.51
2022-08-17T14:31:20.634Z,33.63
2022-08-17T14:34:42.836Z,32.63
2022-08-17T14:38:05.885Z,32.66
2022-08-17T14:41:27.430Z,32.14
2022-08-17T14:44:51.011Z,32.86
2022-08-17T14:48:12.746Z,31.85
2022-08-17T14:51:34.921Z,32.57
2022-08-17T14:55:06.567Z,31.61
2022-08-17T14:58:29.613Z,31.50
2022-08-17T15:01:52.848Z,30.76
2022-08-17T15:05:16.497Z,31.98
2022-08-17T15:08:38.491Z,31.81
2022-08-17T15:12:02.307Z,32.04
2022-08-17T15:15:24.307Z,32.21
2022-08-17T15:18:47.422Z,30.84
2022-08-17T15:22:27.100Z,31.99
2022-08-17T15:25:52.606Z,32.42
2022-08-17T15:29:14.690Z,33.44
2022-08-17T15:32:39.374Z,33.29
2022-08-17T15:36:06.456Z,35.10
2022-08-17T15:39:28.218Z,35.35
2022-08-17T15:42:51.075Z,33.80
2022-08-17T15:46:17.288Z,34.77
2022-08-17T15:49:41.126Z,33.56
2022-08-17T15:53:04.987Z,32.65
2022-08-17T15:56:27.635Z,32.42
2022-08-17T15:59:52.106Z,32.99
2022-08-17T16:04:01.622Z,33.01
2022-08-17T16:07:02.335Z,32.90
2022-08-17T16:10:35.040Z,33.17
2022-08-17T16:13:57.709Z,33.10
2022-08-17T16:17:38.866Z,33.33
2022-08-17T16:21:23.541Z,32.79
2022-08-17T16:24:57.040Z,33.11
2022-08-17T16:28:21.804Z,32.16
2022-08-17T16:31:43.760Z,32.85
2022-08-17T16:35:06.802Z,33.41
2022-08-17T16:38:28.556Z,32.45
2022-08-17T16:41:50.600Z,32.72
2022-08-17T16:45:17.114Z,32.51
2022-08-17T16:48:39.047Z,33.06
2022-08-17T16:52:03.235Z,34.28
2022-08-17T16:55:25.129Z,35.21
2022-08-17T16:58:47.718Z,33.62
2022-08-17T17:02:16.268Z,33.85
2022-08-17T17:05:51.457Z,33.93
2022-08-17T17:09:24.888Z,33.95
2022-08-17T17:13:03.860Z,35.08
2022-08-17T17:16:35.166Z,35.21
2022-08-17T17:20:04.025Z,36.24
2022-08-17T17:23:51.550Z,37.35
2022-08-17T17:27:31.826Z,38.57
2022-08-17T17:31:02.408Z,38.81
2022-08-17T17:34:26.778Z,40.12
2022-08-17T17:37:52.340Z,41.89
2022-08-17T17:41:26.436Z,43.43
2022-08-17T17:44:50.821Z,44.37
2022-08-17T17:48:12.918Z,44.34
2022-08-17T17:52:07.158Z,44.63
2022-08-17T17:55:36.071Z,45.46
2022-08-17T17:59:03.258Z,45.54
2022-08-17T18:02:52.114Z,45.76
2022-08-17T18:06:26.750Z,45.90
2022-08-17T18:10:02.704Z,46.31
2022-08-17T18:13:32.467Z,46.84
2022-08-17T18:16:57.906Z,46.86
2022-08-17T18:20:32.418Z,47.40
2022-08-17T18:24:08.500Z,47.59
2022-08-17T18:27:34.623Z,47.47
2022-08-17T18:31:11.673Z,48.09
2022-08-17T18:34:46.998Z,49.35
2022-08-17T18:38:21.740Z,50.01
2022-08-17T18:41:44.769Z,50.31
2022-08-17T18:45:06.965Z,50.30
2022-08-17T18:48:36.098Z,50.89
2022-08-17T18:52:11.968Z,51.37
2022-08-17T18:55:34.106Z,51.27
2022-08-17T18:59:22.823Z,51.54
2022-08-17T19:02:57.432Z,51.21
2022-08-17T19:06:27.939Z,51.87
2022-08-17T19:09:53.849Z,52.02
2022-08-17T19:13:23.901Z,51.93
2022-08-17T19:16:52.037Z,52.59
2022-08-17T19:20:18.694Z,52.15
2022-08-17T19:23:53.350Z,52.58
2022-08-17T19:27:22.000Z,52.29
2022-08-17T19:30:45.239Z,52.80
2022-08-17T19:34:07.105Z,52.81
2022-08-17T19:37:37.710Z,53.04
2022-08-17T19:41:08.441Z,53.34
2022-08-17T19:44:43.249Z,53.17
2022-08-17T19:48:14.783Z,53.29
2022-08-17T19:51:45.172Z,53.29
2022-08-17T19:55:20.579Z,53.78
2022-08-17T19:58:53.578Z,54.08
2022-08-17T20:02:36.702Z,54.58
2022-08-17T20:06:12.726Z,55.23
2022-08-17T20:09:39.035Z,55.33
2022-08-17T20:13:06.377Z,55.82
2022-08-17T20:16:29.834Z,56.03
2022-08-17T20:19:55.416Z,56.85
2022-08-17T20:23:31.858Z,56.84
2022-08-17T20:26:59.665Z,57.06
2022-08-17T20:30:38.435Z,57.49
2022-08-17T20:34:40.731Z,57.79
2022-08-17T20:38:05.152Z,57.99
2022-08-17T20:41:29.535Z,58.34
2022-08-17T20:44:54.411Z,58.19
2022-08-17T20:48:36.898Z,57.96
2022-08-17T20:52:08.237Z,57.99
2022-08-17T20:55:54.739Z,57.90
2022-08-17T20:59:50.075Z,57.79
2022-08-17T21:03:50.234Z,57.31
2022-08-17T21:07:30.073Z,57.68
2022-08-17T21:10:54.706Z,57.48
2022-08-17T21:14:29.568Z,57.50
2022-08-17T21:18:06.514Z,57.33
2022-08-17T21:21:41.543Z,56.95
2022-08-17T21:25:19.559Z,57.23
2022-08-17T21:29:00.946Z,57.85
2022-08-17T21:32:31.208Z,58.19
2022-08-17T21:35:58.542Z,59.06
2022-08-17T21:39:24.278Z,58.77
2022-08-17T21:42:59.039Z,58.24
2022-08-17T21:46:28.846Z,58.85
2022-08-17T21:49:51.655Z,58.66
2022-08-17T21:53:25.398Z,58.57
2022-08-17T21:56:49.674Z,58.56
2022-08-17T22:00:24.055Z,59.02
2022-08-17T22:03:48.159Z,59.65
2022-08-17T22:07:12.418Z,60.01
2022-08-17T22:10:38.460Z,60.35
2022-08-17T22:14:05.403Z,60.56
2022-08-17T22:17:35.831Z,60.65
2022-08-17T22:21:00.040Z,61.27
2022-08-17T22:24:31.068Z,61.68
2022-08-17T22:27:56.559Z,61.61
2022-08-17T22:31:20.849Z,61.93
2022-08-17T22:34:44.035Z,62.01
2022-08-17T22:38:33.431Z,62.46
2022-08-17T22:42:00.378Z,62.61
2022-08-17T22:45:24.274Z,62.14
2022-08-17T22:48:50.196Z,62.74
2022-08-17T22:52:32.699Z,63.04
2022-08-17T22:56:14.908Z,63.10
2022-08-17T22:59:47.811Z,63.50
2022-08-17T23:03:17.710Z,63.75
2022-08-17T23:06:42.258Z,64.30
2022-08-17T23:10:06.999Z,64.29
2022-08-17T23:13:33.400Z,64.39
2022-08-17T23:16:54.998Z,64.29
2022-08-17T23:20:17.703Z,64.81
2022-08-17T23:23:40.279Z,64.60
2022-08-17T23:27:07.670Z,65.33
2022-08-17T23:30:30.444Z,65.33
2022-08-17T23:33:52.418Z,65.72
2022-08-17T23:37:16.769Z,65.94
2022-08-17T23:40:39.560Z,66.00
2022-08-17T23:44:05.450Z,66.24
2022-08-17T23:47:28.570Z,66.50
2022-08-17T23:50:51.693Z,66.58
2022-08-17T23:54:20.994Z,66.66
2022-08-17T23:57:43.166Z,66.85
